Time;durP1;ratioP1;P1;durP2;ratioP2;P2;SDS_P1;SDS_P2;PMS_P1;PMS_P2;Temp;Humidity;BMP_temperature;BMP_pressure;BME280_temperature;BME280_humidity;BME280_pressure;Samples;Min_cycle;Max_cycle;Signal;HPM_P1;HPM_P2
2022/06/15 00:01:03;;;;;;;;;;;19.20;99.90;;;;;;4977520;28;19916;-79
2022/06/15 00:03:30;;;;;;;;;;;19.30;99.90;;;;;;4977289;28;19957;-78
2022/06/15 00:06:14;;;;;;;;;;;19.30;99.90;;;;;;4976973;28;19960;-79
2022/06/15 00:08:41;;;;;;;;;;;19.30;99.90;;;;;;4977524;28;19914;-78
2022/06/15 00:11:12;;;;;;;;;;;19.30;99.90;;;;;;4977280;28;20282;-79
2022/06/15 00:13:37;;;;;;;;;;;19.40;99.90;;;;;;4977165;28;19911;-78
2022/06/15 00:16:04;;;;;;;;;;;19.40;99.90;;;;;;4977383;28;19961;-79
2022/06/15 00:18:30;;;;;;;;;;;19.40;99.90;;;;;;4977206;28;19914;-78
2022/06/15 00:20:56;;;;;;;;;;;19.30;99.90;;;;;;4977286;28;20378;-78
2022/06/15 00:23:23;;;;;;;;;;;19.30;99.90;;;;;;4977004;28;20432;-78
2022/06/15 00:25:50;;;;;;;;;;;19.30;99.90;;;;;;4977412;28;19910;-79
2022/06/15 00:28:15;;;;;;;;;;;19.20;99.90;;;;;;4976988;28;19910;-77
2022/06/15 00:30:41;;;;;;;;;;;19.30;99.90;;;;;;4976890;28;19917;-79
2022/06/15 00:33:06;;;;;;;;;;;19.30;99.90;;;;;;4976909;28;20278;-78
2022/06/15 00:35:32;;;;;;;;;;;19.20;99.90;;;;;;4976778;28;19997;-79
2022/06/15 00:37:57;;;;;;;;;;;19.30;99.90;;;;;;4977046;28;19910;-78
2022/06/15 00:40:23;;;;;;;;;;;19.30;99.90;;;;;;4976926;28;20008;-79
2022/06/15 00:42:49;;;;;;;;;;;19.20;99.90;;;;;;4976704;28;19921;-78
2022/06/15 00:45:14;;;;;;;;;;;19.20;99.90;;;;;;4976678;28;20358;-78
2022/06/15 00:47:42;;;;;;;;;;;19.10;99.90;;;;;;4976520;28;19914;-79
2022/06/15 00:50:12;;;;;;;;;;;19.10;99.90;;;;;;4976923;28;19961;-78
2022/06/15 00:52:42;;;;;;;;;;;19.20;99.90;;;;;;4976458;28;19965;-78
2022/06/15 00:55:28;;;;;;;;;;;19.10;99.90;;;;;;4976557;28;19997;-79
2022/06/15 00:57:54;;;;;;;;;;;19.10;99.90;;;;;;4975880;28;19917;-79
2022/06/15 01:00:20;;;;;;;;;;;19.10;99.90;;;;;;4976489;28;19914;-78
2022/06/15 01:02:46;;;;;;;;;;;19.00;99.90;;;;;;4976299;28;19965;-79
2022/06/15 01:05:35;;;;;;;;;;;19.00;99.90;;;;;;4976339;28;20339;-77
2022/06/15 01:08:03;;;;;;;;;;;19.10;99.90;;;;;;4958635;28;20341;-79
2022/06/15 01:10:47;;;;;;;;;;;19.00;99.90;;;;;;4976188;28;19961;-77
2022/06/15 01:13:13;;;;;;;;;;;18.90;99.90;;;;;;4976133;28;19911;-78
2022/06/15 01:15:38;;;;;;;;;;;18.80;99.90;;;;;;4976247;28;19917;-79
2022/06/15 01:18:15;;;;;;;;;;;18.80;99.90;;;;;;4975354;28;19917;-78
2022/06/15 01:20:40;;;;;;;;;;;18.80;99.90;;;;;;4976104;28;20287;-78
2022/06/15 01:23:17;;;;;;;;;;;18.80;99.90;;;;;;4975852;28;19914;-79
2022/06/15 01:25:52;;;;;;;;;;;18.80;99.90;;;;;;4976278;28;19911;-78
2022/06/15 01:28:21;;;;;;;;;;;18.70;99.90;;;;;;4976085;28;19910;-79
2022/06/15 01:30:49;;;;;;;;;;;18.60;99.90;;;;;;4975858;28;19910;-78
2022/06/15 01:33:21;;;;;;;;;;;18.50;99.90;;;;;;4975638;28;20370;-78
2022/06/15 01:35:53;;;;;;;;;;;18.30;99.90;;;;;;4975900;28;20366;-78
2022/06/15 01:38:26;;;;;;;;;;;18.30;99.90;;;;;;4958273;28;20380;-78
2022/06/15 01:40:57;;;;;;;;;;;18.30;99.90;;;;;;4975691;28;19980;-79
2022/06/15 01:43:26;;;;;;;;;;;18.30;99.90;;;;;;4975605;28;19941;-78
2022/06/15 01:45:51;;;;;;;;;;;18.30;99.90;;;;;;4975673;28;19910;-79
2022/06/15 01:48:17;;;;;;;;;;;18.20;99.90;;;;;;4975204;28;19940;-77
2022/06/15 01:50:45;;;;;;;;;;;18.20;99.90;;;;;;4975413;28;19949;-79
2022/06/15 01:53:30;;;;;;;;;;;18.30;99.90;;;;;;4975428;28;19910;-77
2022/06/15 01:56:08;;;;;;;;;;;18.30;99.90;;;;;;4975718;28;20329;-79
2022/06/15 01:58:34;;;;;;;;;;;18.20;99.90;;;;;;4975489;28;19910;-79
2022/06/15 02:01:20;;;;;;;;;;;18.20;99.90;;;;;;4975200;28;20383;-78
2022/06/15 02:03:55;;;;;;;;;;;18.10;99.90;;;;;;4974528;28;19925;-78
2022/06/15 02:06:38;;;;;;;;;;;18.00;99.90;;;;;;4975278;28;19960;-79
2022/06/15 02:09:19;;;;;;;;;;;17.90;99.90;;;;;;4975217;28;19997;-79
2022/06/15 02:11:45;;;;;;;;;;;17.90;99.90;;;;;;4975532;28;19910;-79
2022/06/15 02:14:10;;;;;;;;;;;17.90;99.90;;;;;;4975378;28;20293;-78
2022/06/15 02:16:36;;;;;;;;;;;17.90;99.90;;;;;;4975167;28;19911;-78
2022/06/15 02:19:03;;;;;;;;;;;17.70;99.90;;;;;;4975101;28;20370;-78
2022/06/15 02:21:28;;;;;;;;;;;17.80;99.90;;;;;;4975013;28;19937;-78
2022/06/15 02:23:56;;;;;;;;;;;17.80;99.90;;;;;;4975083;28;20362;-77
2022/06/15 02:26:24;;;;;;;;;;;17.70;99.90;;;;;;4957551;28;20382;-78
2022/06/15 02:28:51;;;;;;;;;;;17.70;99.90;;;;;;4974881;28;19923;-79
2022/06/15 02:31:16;;;;;;;;;;;17.70;99.90;;;;;;4974924;28;19910;-78
2022/06/15 02:33:51;;;;;;;;;;;17.70;99.90;;;;;;4974883;28;19910;-78
2022/06/15 02:36:17;;;;;;;;;;;17.70;99.90;;;;;;4974942;28;19953;-77
2022/06/15 02:38:45;;;;;;;;;;;17.60;99.90;;;;;;4974859;28;20012;-77
2022/06/15 02:41:11;;;;;;;;;;;17.60;99.90;;;;;;4974990;28;19910;-79
2022/06/15 02:43:37;;;;;;;;;;;17.60;99.90;;;;;;4974773;28;19965;-78
2022/06/15 02:46:04;;;;;;;;;;;17.40;99.90;;;;;;4974864;28;20414;-78
2022/06/15 02:48:30;;;;;;;;;;;17.40;99.90;;;;;;4974459;28;19922;-78
2022/06/15 02:51:14;;;;;;;;;;;17.40;99.90;;;;;;4974740;28;19910;-78
2022/06/15 02:53:40;;;;;;;;;;;17.40;99.90;;;;;;4974834;28;19914;-78
2022/06/15 02:56:07;;;;;;;;;;;17.30;99.90;;;;;;4974712;28;19910;-79
2022/06/15 02:58:34;;;;;;;;;;;17.40;99.90;;;;;;4974642;28;19933;-78
2022/06/15 03:01:00;;;;;;;;;;;17.30;99.90;;;;;;4974705;28;19914;-79
2022/06/15 03:03:27;;;;;;;;;;;17.30;99.90;;;;;;4975078;28;20438;-78
2022/06/15 03:05:53;;;;;;;;;;;17.30;99.90;;;;;;4974573;28;19949;-79
2022/06/15 03:08:19;;;;;;;;;;;17.20;99.90;;;;;;4974548;28;19917;-79
2022/06/15 03:10:45;;;;;;;;;;;17.20;99.90;;;;;;4974568;28;19910;-79
2022/06/15 03:13:11;;;;;;;;;;;17.30;99.90;;;;;;4974916;28;19910;-78
2022/06/15 03:15:36;;;;;;;;;;;17.30;99.90;;;;;;4974634;28;20371;-77
2022/06/15 03:18:02;;;;;;;;;;;17.30;99.90;;;;;;4974487;28;19917;-78
2022/06/15 03:20:28;;;;;;;;;;;17.40;99.90;;;;;;4974429;28;19917;-77
2022/06/15 03:22:53;;;;;;;;;;;17.30;99.90;;;;;;4974376;28;19915;-79
2022/06/15 03:25:19;;;;;;;;;;;17.30;99.90;;;;;;4974406;28;20318;-77
2022/06/15 03:27:45;;;;;;;;;;;17.30;99.90;;;;;;4974441;28;19910;-78
2022/06/15 03:30:11;;;;;;;;;;;17.30;99.90;;;;;;4974648;28;19922;-77
2022/06/15 03:32:37;;;;;;;;;;;17.20;99.90;;;;;;4974356;28;19969;-79
2022/06/15 03:35:03;;;;;;;;;;;17.10;99.90;;;;;;4974403;28;19910;-78
2022/06/15 03:37:29;;;;;;;;;;;17.10;99.90;;;;;;4974258;28;19948;-78
2022/06/15 03:39:55;;;;;;;;;;;17.10;99.90;;;;;;4974471;28;19957;-78
2022/06/15 03:42:25;;;;;;;;;;;17.10;99.90;;;;;;4977799;28;19914;-79
2022/06/15 03:44:51;;;;;;;;;;;17.10;99.90;;;;;;4977751;28;19914;-78
2022/06/15 03:47:20;;;;;;;;;;;17.10;99.90;;;;;;4977415;28;19939;-77
2022/06/15 03:49:52;;;;;;;;;;;16.90;99.90;;;;;;4977915;28;19941;-76
2022/06/15 03:52:20;;;;;;;;;;;17.00;99.90;;;;;;4977858;28;20000;-77
2022/06/15 03:54:46;;;;;;;;;;;16.80;99.90;;;;;;4977562;28;19910;-77
2022/06/15 03:57:12;;;;;;;;;;;16.80;99.90;;;;;;4977563;28;19965;-78
2022/06/15 03:59:39;;;;;;;;;;;16.90;99.90;;;;;;4977544;28;19910;-79
2022/06/15 04:02:05;;;;;;;;;;;16.80;99.90;;;;;;4977494;28;20428;-78
2022/06/15 04:04:31;;;;;;;;;;;16.50;99.90;;;;;;4977456;28;19922;-78
2022/06/15 04:06:57;;;;;;;;;;;16.10;99.90;;;;;;4977440;28;19916;-78
2022/06/15 04:09:22;;;;;;;;;;;16.40;99.90;;;;;;4977315;28;19910;-78
2022/06/15 04:12:08;;;;;;;;;;;16.50;99.90;;;;;;4977206;28;20453;-78
2022/06/15 04:14:34;;;;;;;;;;;16.60;99.90;;;;;;4977322;28;19909;-78
2022/06/15 04:17:00;;;;;;;;;;;16.70;99.90;;;;;;4977087;28;20326;-78
2022/06/15 04:19:28;;;;;;;;;;;16.80;99.90;;;;;;4977582;28;19965;-78
2022/06/15 04:21:54;;;;;;;;;;;16.70;99.90;;;;;;4977251;28;19916;-79
2022/06/15 04:24:20;;;;;;;;;;;16.60;99.90;;;;;;4976973;28;19914;-78
2022/06/15 04:26:47;;;;;;;;;;;16.70;99.90;;;;;;4977074;28;19910;-78
2022/06/15 04:29:13;;;;;;;;;;;16.70;99.90;;;;;;4977199;28;19911;-79
2022/06/15 04:31:39;;;;;;;;;;;16.60;99.90;;;;;;4977251;28;20321;-78
2022/06/15 04:34:05;;;;;;;;;;;16.70;99.90;;;;;;4976851;28;19910;-79
2022/06/15 04:36:31;;;;;;;;;;;16.70;99.90;;;;;;4976875;28;19910;-78
2022/06/15 04:38:56;;;;;;;;;;;16.80;99.90;;;;;;4976766;28;19910;-79
2022/06/15 04:41:22;;;;;;;;;;;16.90;99.90;;;;;;4976703;28;19910;-78
2022/06/15 04:43:48;;;;;;;;;;;16.90;99.90;;;;;;4976947;28;19915;-77
2022/06/15 04:46:13;;;;;;;;;;;17.00;99.90;;;;;;4976529;28;20350;-77
2022/06/15 04:48:39;;;;;;;;;;;17.00;99.90;;;;;;4976437;28;19925;-79
2022/06/15 04:51:24;;;;;;;;;;;17.00;99.90;;;;;;4976601;28;19914;-77
2022/06/15 04:53:51;;;;;;;;;;;17.10;99.90;;;;;;4975270;28;19921;-79
2022/06/15 04:56:17;;;;;;;;;;;17.20;99.90;;;;;;4976744;28;19956;-81
2022/06/15 04:58:43;;;;;;;;;;;17.20;99.90;;;;;;4976380;28;19910;-78
2022/06/15 05:01:09;;;;;;;;;;;17.20;99.90;;;;;;4976362;28;19910;-77
2022/06/15 05:03:36;;;;;;;;;;;17.30;99.90;;;;;;4976188;28;19951;-78
2022/06/15 05:06:07;;;;;;;;;;;17.30;99.90;;;;;;4976252;28;19917;-77
2022/06/15 05:08:32;;;;;;;;;;;17.30;99.90;;;;;;4976252;28;19910;-78
2022/06/15 05:11:00;;;;;;;;;;;17.40;99.90;;;;;;4976176;28;20375;-77
2022/06/15 05:13:25;;;;;;;;;;;17.50;99.90;;;;;;4976467;28;19910;-78
2022/06/15 05:15:51;;;;;;;;;;;17.50;99.90;;;;;;4976062;28;19961;-78
2022/06/15 05:18:16;;;;;;;;;;;17.50;99.90;;;;;;4976077;28;19917;-78
2022/06/15 05:20:42;;;;;;;;;;;17.60;99.90;;;;;;4976008;28;20331;-78
2022/06/15 05:23:11;;;;;;;;;;;17.50;99.90;;;;;;4975902;28;19914;-79
2022/06/15 05:25:37;;;;;;;;;;;17.60;99.90;;;;;;4975931;28;19943;-79
2022/06/15 05:28:04;;;;;;;;;;;17.80;99.90;;;;;;4975941;28;20370;-78
2022/06/15 05:30:29;;;;;;;;;;;17.90;99.90;;;;;;4975899;28;19914;-78
2022/06/15 05:32:55;;;;;;;;;;;17.90;99.90;;;;;;4976274;28;20023;-79
2022/06/15 05:35:21;;;;;;;;;;;18.10;99.90;;;;;;4975851;28;19916;-79
2022/06/15 05:37:46;;;;;;;;;;;18.10;99.90;;;;;;4975881;28;19916;-77
2022/06/15 05:40:12;;;;;;;;;;;18.20;99.90;;;;;;4958200;28;19990;-78
2022/06/15 05:42:38;;;;;;;;;;;18.30;99.90;;;;;;4975489;28;19960;-79
2022/06/15 05:45:03;;;;;;;;;;;18.20;99.90;;;;;;4975921;28;19917;-78
2022/06/15 05:47:29;;;;;;;;;;;18.20;99.90;;;;;;4975266;28;20393;-79
2022/06/15 05:49:55;;;;;;;;;;;18.30;99.90;;;;;;4975549;28;19918;-79
2022/06/15 05:52:20;;;;;;;;;;;18.50;99.90;;;;;;4975393;28;19914;-80
2022/06/15 05:54:46;;;;;;;;;;;18.50;99.90;;;;;;4975356;28;19911;-79
2022/06/15 05:57:15;;;;;;;;;;;18.60;99.90;;;;;;4975477;28;20318;-79
2022/06/15 05:59:41;;;;;;;;;;;18.60;99.90;;;;;;4975290;28;20290;-77
2022/06/15 06:02:08;;;;;;;;;;;18.60;99.90;;;;;;4975316;28;19910;-78
2022/06/15 06:04:33;;;;;;;;;;;18.70;99.90;;;;;;4975294;28;19940;-79
2022/06/15 06:06:59;;;;;;;;;;;19.00;99.90;;;;;;4975445;28;20370;-80
2022/06/15 06:09:25;;;;;;;;;;;19.10;99.90;;;;;;4975190;28;19910;-78
2022/06/15 06:11:50;;;;;;;;;;;19.10;99.90;;;;;;4975425;28;20271;-78
2022/06/15 06:14:16;;;;;;;;;;;19.30;99.90;;;;;;4975297;28;19957;-79
2022/06/15 06:16:41;;;;;;;;;;;19.40;99.90;;;;;;4975074;28;19910;-79
2022/06/15 06:19:07;;;;;;;;;;;19.50;99.90;;;;;;4975083;28;20009;-78
2022/06/15 06:21:32;;;;;;;;;;;19.60;99.90;;;;;;4975023;28;19917;-77
2022/06/15 06:23:58;;;;;;;;;;;19.60;99.90;;;;;;4974984;28;20013;-79
2022/06/15 06:26:25;;;;;;;;;;;19.60;99.90;;;;;;4975025;28;19910;-77
2022/06/15 06:28:51;;;;;;;;;;;19.80;99.90;;;;;;4975035;28;20374;-78
2022/06/15 06:31:20;;;;;;;;;;;19.80;99.90;;;;;;4974900;28;19917;-78
2022/06/15 06:33:46;;;;;;;;;;;19.80;99.90;;;;;;4975205;28;19910;-78
2022/06/15 06:36:16;;;;;;;;;;;20.00;99.90;;;;;;4974884;28;19961;-79
2022/06/15 06:38:42;;;;;;;;;;;20.10;99.90;;;;;;4975002;28;20387;-78
2022/06/15 06:41:08;;;;;;;;;;;20.20;99.90;;;;;;4974860;28;19945;-78
2022/06/15 06:43:34;;;;;;;;;;;20.50;99.90;;;;;;4974965;28;19989;-79
2022/06/15 06:45:59;;;;;;;;;;;20.70;99.90;;;;;;4974803;28;19914;-79
2022/06/15 06:48:25;;;;;;;;;;;20.60;99.90;;;;;;4974505;28;20297;-79
2022/06/15 06:50:51;;;;;;;;;;;20.70;99.90;;;;;;4974712;28;19917;-79
2022/06/15 06:53:17;;;;;;;;;;;20.70;99.90;;;;;;4974745;28;20004;-77
2022/06/15 06:55:42;;;;;;;;;;;20.80;99.90;;;;;;4974659;28;19948;-79
2022/06/15 06:58:08;;;;;;;;;;;21.10;99.90;;;;;;4974910;28;19911;-79
2022/06/15 07:00:35;;;;;;;;;;;21.10;99.90;;;;;;4974647;28;20359;-79
2022/06/15 07:03:01;;;;;;;;;;;21.10;99.90;;;;;;4957100;28;19961;-79
2022/06/15 07:05:27;;;;;;;;;;;21.30;99.90;;;;;;4974609;28;19916;-78
2022/06/15 07:07:53;;;;;;;;;;;21.40;99.90;;;;;;4974852;28;20369;-79
2022/06/15 07:10:19;;;;;;;;;;;21.40;99.90;;;;;;4974652;28;19946;-78
2022/06/15 07:12:44;;;;;;;;;;;21.50;99.90;;;;;;4975045;28;20351;-80
2022/06/15 07:15:11;;;;;;;;;;;21.70;99.90;;;;;;4974739;28;19914;-78
2022/06/15 07:17:37;;;;;;;;;;;21.90;99.90;;;;;;4978295;28;20318;-79
2022/06/15 07:20:03;;;;;;;;;;;21.90;99.90;;;;;;4960781;28;19965;-78
2022/06/15 07:22:29;;;;;;;;;;;22.00;99.70;;;;;;4978028;28;19921;-80
2022/06/15 07:24:56;;;;;;;;;;;22.00;99.70;;;;;;4978096;28;20374;-79
2022/06/15 07:27:21;;;;;;;;;;;22.20;99.00;;;;;;4977995;28;19910;-79
2022/06/15 07:29:47;;;;;;;;;;;22.30;98.60;;;;;;4977927;28;20290;-81
2022/06/15 07:32:14;;;;;;;;;;;22.50;98.20;;;;;;4977916;28;19968;-79
2022/06/15 07:34:40;;;;;;;;;;;22.50;97.80;;;;;;4978363;28;20001;-78
2022/06/15 07:37:07;;;;;;;;;;;22.70;97.50;;;;;;4977960;28;19917;-79
2022/06/15 07:39:33;;;;;;;;;;;22.70;97.10;;;;;;4977907;28;19910;-78
2022/06/15 07:41:58;;;;;;;;;;;22.90;96.50;;;;;;4977884;28;20358;-79
2022/06/15 07:44:25;;;;;;;;;;;23.00;95.80;;;;;;4960381;28;19921;-78
2022/06/15 07:49:54;;;;;;;;;;;23.90;94.50;;;;;;4977717;28;20432;-79
2022/06/15 07:49:54;;;;;;;;;;;26.70;87.70;;;;;;4977469;28;20370;-79
2022/06/15 07:52:21;;;;;;;;;;;29.60;77.80;;;;;;4977723;28;19942;-79
2022/06/15 07:54:46;;;;;;;;;;;31.00;69.60;;;;;;4977736;28;20005;-81
2022/06/15 07:57:12;;;;;;;;;;;32.30;65.30;;;;;;4977597;28;20001;-81
2022/06/15 07:59:38;;;;;;;;;;;32.90;61.50;;;;;;4977563;28;19917;-80
2022/06/15 08:02:03;;;;;;;;;;;33.30;61.10;;;;;;4977468;28;20308;-79
2022/06/15 08:04:29;;;;;;;;;;;33.70;59.70;;;;;;4977386;28;19918;-80
2022/06/15 08:06:55;;;;;;;;;;;34.30;58.20;;;;;;4977420;28;19910;-80
2022/06/15 08:09:20;;;;;;;;;;;34.10;57.20;;;;;;4977303;28;19965;-79
2022/06/15 08:14:31;;;;;;;;;;;34.20;56.00;;;;;;4977527;28;19921;-80
2022/06/15 08:16:56;;;;;;;;;;;34.80;56.50;;;;;;4977162;28;19910;-80
2022/06/15 08:19:28;;;;;;;;;;;34.80;54.50;;;;;;4977196;28;19910;-81
2022/06/15 08:21:54;;;;;;;;;;;34.50;55.00;;;;;;4977173;28;19996;-80
2022/06/15 08:24:21;;;;;;;;;;;34.50;54.50;;;;;;4976985;28;19915;-81
2022/06/15 08:26:47;;;;;;;;;;;34.00;54.70;;;;;;4976874;28;19910;-80
2022/06/15 08:29:13;;;;;;;;;;;33.40;54.70;;;;;;4977022;28;19910;-80
2022/06/15 08:31:39;;;;;;;;;;;33.60;55.90;;;;;;4976958;28;19938;-79
2022/06/15 08:34:05;;;;;;;;;;;33.70;56.20;;;;;;4976916;28;19917;-79
2022/06/15 08:36:31;;;;;;;;;;;33.60;56.20;;;;;;4976892;28;19914;-81
2022/06/15 08:38:57;;;;;;;;;;;33.60;55.90;;;;;;4976950;28;19981;-80
2022/06/15 08:41:41;;;;;;;;;;;33.40;55.70;;;;;;4977219;28;19914;-80
2022/06/15 08:44:20;;;;;;;;;;;33.70;56.00;;;;;;4976762;28;19914;-81
2022/06/15 08:47:04;;;;;;;;;;;33.60;54.80;;;;;;4977126;28;19982;-80
2022/06/15 08:49:40;;;;;;;;;;;33.10;56.00;;;;;;4976224;28;19969;-80
2022/06/15 08:52:14;;;;;;;;;;;33.20;54.80;;;;;;4976681;28;19957;-80
2022/06/15 08:54:41;;;;;;;;;;;33.00;54.40;;;;;;4976549;28;19917;-80
2022/06/15 08:57:14;;;;;;;;;;;32.80;54.60;;;;;;4976475;28;19914;-80
2022/06/15 08:59:42;;;;;;;;;;;32.80;53.80;;;;;;4976553;28;19961;-80
2022/06/15 09:02:08;;;;;;;;;;;33.50;54.10;;;;;;4976462;28;20374;-80
2022/06/15 09:05:03;;;;;;;;;;;33.80;54.10;;;;;;4976252;28;19942;-80
2022/06/15 09:07:40;;;;;;;;;;;34.20;53.70;;;;;;4946254;28;20008;-79
2022/06/15 09:10:17;;;;;;;;;;;34.00;53.20;;;;;;4976401;28;19911;-81
2022/06/15 09:12:58;;;;;;;;;;;34.00;53.80;;;;;;4976253;28;19911;-79
2022/06/15 09:15:31;;;;;;;;;;;33.70;53.30;;;;;;4958585;28;19917;-79
2022/06/15 09:17:59;;;;;;;;;;;34.20;53.40;;;;;;4976081;28;19917;-81
2022/06/15 09:20:27;;;;;;;;;;;34.50;52.70;;;;;;4976138;28;19917;-80
2022/06/15 09:23:16;;;;;;;;;;;34.70;51.30;;;;;;4975827;28;20278;-80
2022/06/15 09:25:45;;;;;;;;;;;34.70;51.80;;;;;;4968254;28;19910;-81
2022/06/15 09:28:18;;;;;;;;;;;35.00;51.10;;;;;;4975889;28;19914;-80
2022/06/15 09:30:44;;;;;;;;;;;35.20;51.40;;;;;;4975972;28;19952;-80
2022/06/15 09:33:32;;;;;;;;;;;35.20;51.60;;;;;;4975872;28;19910;-79
2022/06/15 09:36:09;;;;;;;;;;;35.30;51.10;;;;;;4976210;28;20310;-79
2022/06/15 09:38:35;;;;;;;;;;;35.40;50.10;;;;;;4975355;28;19910;-79
2022/06/15 09:41:09;;;;;;;;;;;35.20;51.40;;;;;;4975679;28;19964;-81
2022/06/15 09:43:35;;;;;;;;;;;35.20;50.60;;;;;;4975592;28;19921;-80
2022/06/15 09:46:02;;;;;;;;;;;35.10;51.00;;;;;;4975616;28;19914;-79
2022/06/15 09:48:36;;;;;;;;;;;35.50;50.20;;;;;;4957889;28;19918;-81
2022/06/15 09:51:06;;;;;;;;;;;35.90;50.20;;;;;;4975664;28;19910;-79
2022/06/15 09:53:40;;;;;;;;;;;36.40;49.30;;;;;;4975534;28;19911;-79
2022/06/15 09:56:08;;;;;;;;;;;36.60;49.60;;;;;;4975703;28;19997;-79
2022/06/15 09:58:39;;;;;;;;;;;36.90;48.90;;;;;;4975365;28;19914;-80
2022/06/15 10:01:06;;;;;;;;;;;37.20;48.20;;;;;;4975599;28;19911;-81
2022/06/15 10:03:34;;;;;;;;;;;36.60;48.40;;;;;;4975257;28;19943;-80
2022/06/15 10:06:11;;;;;;;;;;;37.00;48.50;;;;;;4975284;28;19910;-80
2022/06/15 10:08:37;;;;;;;;;;;37.10;48.30;;;;;;4975471;28;19963;-80
2022/06/15 10:11:05;;;;;;;;;;;37.30;48.00;;;;;;4975233;28;20370;-79
2022/06/15 10:13:35;;;;;;;;;;;36.80;47.20;;;;;;4975235;28;20259;-81
2022/06/15 10:16:22;;;;;;;;;;;37.30;47.60;;;;;;4975127;28;20375;-80
2022/06/15 10:18:53;;;;;;;;;;;37.40;47.50;;;;;;4975365;28;20382;-81
2022/06/15 10:21:20;;;;;;;;;;;37.70;47.30;;;;;;4975316;28;19918;-79
2022/06/15 10:24:03;;;;;;;;;;;38.10;46.60;;;;;;4974904;28;20394;-80
2022/06/15 10:26:38;;;;;;;;;;;38.20;45.60;;;;;;4975040;28;20259;-79
2022/06/15 10:29:24;;;;;;;;;;;38.20;45.00;;;;;;4975021;28;20282;-79
2022/06/15 10:31:57;;;;;;;;;;;38.40;45.70;;;;;;4974428;28;19965;-80
2022/06/15 10:34:31;;;;;;;;;;;38.40;45.30;;;;;;4975350;28;19914;-80
2022/06/15 10:36:58;;;;;;;;;;;38.90;45.30;;;;;;4957627;28;20322;-79
2022/06/15 10:39:25;;;;;;;;;;;39.20;44.50;;;;;;4975106;28;19937;-80
2022/06/15 10:42:00;;;;;;;;;;;39.40;45.30;;;;;;4975204;28;20441;-81
2022/06/15 10:44:29;;;;;;;;;;;39.00;44.10;;;;;;4975122;28;19968;-81
2022/06/15 10:47:06;;;;;;;;;;;39.50;44.30;;;;;;4975009;28;19954;-82
2022/06/15 10:49:35;;;;;;;;;;;39.60;44.00;;;;;;4957179;28;19918;-80
2022/06/15 10:52:02;;;;;;;;;;;39.60;43.70;;;;;;4978263;28;19922;-81
2022/06/15 10:54:33;;;;;;;;;;;39.40;43.90;;;;;;4979138;28;19916;-80
2022/06/15 11:02:50;;;;;;;;;;;39.60;43.80;;;;;;4978539;28;19969;-79
2022/06/15 11:05:17;;;;;;;;;;;40.00;43.80;;;;;;4978981;28;20290;-79
2022/06/15 11:07:53;;;;;;;;;;;40.30;43.30;;;;;;4978739;28;20366;-80
2022/06/15 11:10:27;;;;;;;;;;;40.40;43.20;;;;;;4979166;28;19910;-80
2022/06/15 11:12:55;;;;;;;;;;;40.50;42.20;;;;;;4978774;28;19916;-80
2022/06/15 11:18:01;;;;;;;;;;;39.70;42.40;;;;;;4978648;28;20393;-80
2022/06/15 11:18:18;;;;;;;;;;;40.30;42.70;;;;;;4978287;28;19953;-82
2022/06/15 11:20:47;;;;;;;;;;;41.10;42.30;;;;;;4978896;28;19933;-80
2022/06/15 11:23:24;;;;;;;;;;;41.10;41.60;;;;;;4978566;28;19989;-80
2022/06/15 11:25:55;;;;;;;;;;;40.80;42.00;;;;;;4978466;28;20386;-82
2022/06/15 11:28:27;;;;;;;;;;;40.20;42.20;;;;;;4978501;28;19937;-80
2022/06/15 11:30:58;;;;;;;;;;;41.20;41.60;;;;;;4961191;28;19910;-82
2022/06/15 11:33:23;;;;;;;;;;;41.60;41.40;;;;;;4961052;28;19982;-82
2022/06/15 11:36:09;;;;;;;;;;;40.90;41.40;;;;;;4978673;28;20390;-80
2022/06/15 11:38:35;;;;;;;;;;;41.60;41.30;;;;;;4967848;28;19918;-81
2022/06/15 11:41:20;;;;;;;;;;;41.00;41.40;;;;;;4978382;28;19914;-80
2022/06/15 11:43:47;;;;;;;;;;;41.10;41.20;;;;;;4978305;28;19915;-81
2022/06/15 11:46:31;;;;;;;;;;;40.90;40.40;;;;;;4978331;28;20298;-80
2022/06/15 11:49:09;;;;;;;;;;;41.00;41.30;;;;;;4977790;28;19918;-81
2022/06/15 11:51:46;;;;;;;;;;;41.50;40.20;;;;;;4978179;28;19910;-80
2022/06/15 11:54:12;;;;;;;;;;;42.10;39.70;;;;;;4978399;28;19974;-80
2022/06/15 11:56:43;;;;;;;;;;;42.60;39.30;;;;;;4960631;28;20367;-79
2022/06/15 11:59:12;;;;;;;;;;;42.20;39.30;;;;;;4977940;28;19910;-80
2022/06/15 12:01:41;;;;;;;;;;;41.30;40.30;;;;;;4977457;28;20382;-80
2022/06/15 12:04:07;;;;;;;;;;;41.50;40.00;;;;;;4977738;28;20290;-81
2022/06/15 12:06:33;;;;;;;;;;;41.30;39.80;;;;;;4977941;28;19917;-82
2022/06/15 12:09:09;;;;;;;;;;;41.80;39.90;;;;;;4977679;28;20386;-80
2022/06/15 12:15:07;;;;;;;;;;;41.70;38.60;;;;;;4972553;28;19917;-80
2022/06/15 12:17:39;;;;;;;;;;;40.90;39.30;;;;;;4977675;28;20334;-81
2022/06/15 12:20:18;;;;;;;;;;;40.80;39.30;;;;;;4977475;28;19910;-81
2022/06/15 12:22:49;;;;;;;;;;;41.30;39.40;;;;;;4959767;28;19910;-81
2022/06/15 12:25:23;;;;;;;;;;;41.80;38.80;;;;;;4977730;28;19948;-80
2022/06/15 12:28:06;;;;;;;;;;;42.60;38.40;;;;;;4977273;28;19910;-79
2022/06/15 12:30:36;;;;;;;;;;;43.00;37.90;;;;;;4977432;28;19968;-81
2022/06/15 12:33:20;;;;;;;;;;;42.30;37.60;;;;;;4977380;28;19910;-80
2022/06/15 12:36:04;;;;;;;;;;;41.50;37.90;;;;;;4977055;28;20367;-81
2022/06/15 12:38:49;;;;;;;;;;;42.70;37.70;;;;;;4977278;28;19956;-81
2022/06/15 12:44:17;;;;;;;;;;;43.00;36.60;;;;;;4961662;28;19921;-81
2022/06/15 12:46:44;;;;;;;;;;;40.90;37.80;;;;;;4976925;28;19910;-80
2022/06/15 12:49:15;;;;;;;;;;;41.70;38.00;;;;;;4959221;28;19925;-81
2022/06/15 12:51:53;;;;;;;;;;;42.60;37.20;;;;;;4976780;28;19914;-82
2022/06/15 12:54:20;;;;;;;;;;;42.90;37.20;;;;;;4976888;28;20437;-80
2022/06/15 12:57:00;;;;;;;;;;;43.30;36.50;;;;;;4959380;28;19911;-80
2022/06/15 12:59:43;;;;;;;;;;;42.90;35.50;;;;;;4976839;28;20003;-81
2022/06/15 13:02:33;;;;;;;;;;;43.00;36.90;;;;;;4976895;28;19922;-81
2022/06/15 13:05:14;;;;;;;;;;;43.60;37.00;;;;;;4977001;28;19925;-80
2022/06/15 13:07:41;;;;;;;;;;;43.50;37.00;;;;;;4976768;28;20000;-80
2022/06/15 13:10:07;;;;;;;;;;;43.60;37.50;;;;;;4976926;28;19962;-81
2022/06/15 13:12:34;;;;;;;;;;;43.10;37.30;;;;;;4976237;28;19910;-82
2022/06/15 13:15:00;;;;;;;;;;;43.20;37.10;;;;;;4976045;28;19917;-82
2022/06/15 13:17:28;;;;;;;;;;;43.00;37.20;;;;;;4976572;28;19910;-80
2022/06/15 13:20:05;;;;;;;;;;;43.00;36.80;;;;;;4976315;28;19916;-80
2022/06/15 13:22:32;;;;;;;;;;;42.90;37.90;;;;;;4976525;28;19918;-81
2022/06/15 13:25:12;;;;;;;;;;;43.60;37.60;;;;;;4976477;28;19910;-80
2022/06/15 13:27:39;;;;;;;;;;;43.90;37.50;;;;;;4976259;28;20028;-80
2022/06/15 13:30:25;;;;;;;;;;;44.30;37.40;;;;;;4976195;28;19910;-82
2022/06/15 13:32:57;;;;;;;;;;;44.30;37.80;;;;;;4975705;28;19949;-81
2022/06/15 13:35:26;;;;;;;;;;;44.50;36.30;;;;;;4976176;28;19914;-80
2022/06/15 13:37:56;;;;;;;;;;;44.70;36.90;;;;;;4976024;28;19961;-80
2022/06/15 13:40:21;;;;;;;;;;;43.60;37.10;;;;;;4976001;28;19910;-81
2022/06/15 13:42:48;;;;;;;;;;;43.10;37.50;;;;;;4976143;28;19917;-80
2022/06/15 13:45:18;;;;;;;;;;;43.50;38.10;;;;;;4975949;28;20001;-79
2022/06/15 13:47:46;;;;;;;;;;;43.70;37.80;;;;;;4975723;28;19969;-80
2022/06/15 13:50:13;;;;;;;;;;;43.90;37.20;;;;;;4976165;28;19922;-82
2022/06/15 13:52:40;;;;;;;;;;;44.10;37.30;;;;;;4975661;28;19960;-81
2022/06/15 13:55:12;;;;;;;;;;;44.30;37.00;;;;;;4975682;28;20333;-81
2022/06/15 13:57:53;;;;;;;;;;;44.10;37.30;;;;;;4958219;28;20115;-81
2022/06/15 14:00:31;;;;;;;;;;;44.60;37.10;;;;;;4975904;28;19910;-80
2022/06/15 14:03:10;;;;;;;;;;;44.70;36.90;;;;;;4975540;28;19922;-81
2022/06/15 14:05:44;;;;;;;;;;;44.50;36.50;;;;;;4975648;28;19910;-81
2022/06/15 14:08:19;;;;;;;;;;;44.10;36.70;;;;;;4975439;28;19910;-81
2022/06/15 14:11:07;;;;;;;;;;;43.90;37.10;;;;;;4950718;28;20422;-81
2022/06/15 14:13:52;;;;;;;;;;;44.30;36.90;;;;;;4955168;29;19952;-82
2022/06/15 14:16:25;;;;;;;;;;;43.90;37.20;;;;;;4955608;29;19934;-80
2022/06/15 14:18:55;;;;;;;;;;;44.50;37.00;;;;;;4955346;29;19921;-80
2022/06/15 14:21:28;;;;;;;;;;;43.90;37.00;;;;;;4954466;28;19921;-80
2022/06/15 14:23:54;;;;;;;;;;;44.20;37.00;;;;;;4955401;28;20009;-80
2022/06/15 14:26:23;;;;;;;;;;;43.90;37.70;;;;;;4937832;29;19949;-81
2022/06/15 14:28:55;;;;;;;;;;;43.80;37.00;;;;;;4955381;29;20358;-82
2022/06/15 14:31:26;;;;;;;;;;;43.90;37.30;;;;;;4938087;29;19926;-81
2022/06/15 14:33:56;;;;;;;;;;;44.60;37.30;;;;;;4955280;29;19921;-81
2022/06/15 14:36:23;;;;;;;;;;;45.40;37.30;;;;;;4955274;29;19910;-80
2022/06/15 14:38:54;;;;;;;;;;;45.10;36.80;;;;;;4955048;29;19921;-81
2022/06/15 14:41:21;;;;;;;;;;;45.50;36.70;;;;;;4954983;28;19911;-81
2022/06/15 14:43:50;;;;;;;;;;;45.60;36.40;;;;;;4955241;29;20058;-81
2022/06/15 14:46:21;;;;;;;;;;;46.00;36.80;;;;;;4955052;28;20390;-81